Time;durP1;ratioP1;P1;durP2;ratioP2;P2;SDS_P1;SDS_P2;PMS_P1;PMS_P2;Temp;Humidity;BMP_temperature;BMP_pressure;BME280_temperature;BME280_humidity;BME280_pressure;Samples;Min_cycle;Max_cycle;Signal;HPM_P1;HPM_P2
2023/05/22 00:00:06;;;;;;;5.42;3.50;;;;;;;19.02;68.53;100007.70;1801133;79;21728;-79
2023/05/22 00:03:05;;;;;;;5.40;3.77;;;;;;;19.18;68.00;100008.92;1802617;79;21177;-79
2023/05/22 00:06:11;;;;;;;4.65;3.42;;;;;;;18.97;68.74;100005.66;1802618;79;21327;-79
2023/05/22 00:09:18;;;;;;;4.15;3.37;;;;;;;19.06;68.41;100017.23;1801239;79;21236;-80
2023/05/22 00:12:24;;;;;;;5.62;3.72;;;;;;;19.03;68.49;100015.77;1802741;79;21229;-80
2023/05/22 00:15:29;;;;;;;9.18;3.92;;;;;;;18.88;68.95;100016.23;1802723;79;21177;-79
2023/05/22 00:18:35;;;;;;;7.42;3.58;;;;;;;18.97;68.93;100013.97;1802737;79;21154;-80
2023/05/22 00:21:41;;;;;;;10.78;3.92;;;;;;;18.67;69.72;100018.66;1801061;79;21213;-80
2023/05/22 00:24:48;;;;;;;6.40;3.50;;;;;;;18.77;69.69;100017.58;1801256;79;21244;-80
2023/05/22 00:27:55;;;;;;;6.87;3.55;;;;;;;18.86;69.44;100020.31;1802726;79;21177;-79
2023/05/22 00:31:02;;;;;;;4.62;3.27;;;;;;;18.79;69.31;100021.81;1802166;79;21264;-79
2023/05/22 00:34:10;;;;;;;6.60;4.10;;;;;;;18.71;69.60;100017.15;1802707;79;21177;-79
2023/05/22 00:37:16;;;;;;;5.65;3.67;;;;;;;18.71;69.75;100018.53;1802117;79;21205;-80
2023/05/22 00:40:22;;;;;;;4.85;3.50;;;;;;;18.72;69.60;100016.06;1802633;79;21165;-80
2023/05/22 00:43:28;;;;;;;6.20;3.77;;;;;;;18.49;70.42;100014.02;1802621;79;21175;-80
2023/05/22 00:46:35;;;;;;;6.53;3.70;;;;;;;18.54;70.29;100008.66;1801179;79;21291;-80
2023/05/22 00:49:41;;;;;;;6.72;3.75;;;;;;;18.36;71.05;100000.69;1801407;79;22461;-80
2023/05/22 00:52:49;;;;;;;6.37;3.62;;;;;;;18.38;71.02;100006.83;1801033;79;21272;-80
2023/05/22 00:55:55;;;;;;;7.35;3.70;;;;;;;18.34;71.36;100001.99;1816610;79;21177;-80
2023/05/22 00:59:02;;;;;;;5.62;3.98;;;;;;;18.30;71.63;100004.92;1816633;79;21157;-80
2023/05/22 01:02:07;;;;;;;5.35;3.72;;;;;;;18.59;70.84;100010.17;1815631;79;21169;-80
2023/05/22 01:05:16;;;;;;;5.78;3.83;;;;;;;18.75;70.24;100003.97;1816463;79;21220;-80
2023/05/22 01:08:21;;;;;;;8.03;3.80;;;;;;;18.87;69.66;100002.63;1815456;79;22395;-80
2023/05/22 01:11:56;;;;;;;7.85;4.53;;;;;;;18.77;69.75;99999.05;1816193;79;21200;-80
2023/05/22 01:15:16;;;;;;;10.98;4.60;;;;;;;18.36;71.33;99995.70;1816643;79;21231;-79
2023/05/22 01:18:44;;;;;;;7.83;4.17;;;;;;;18.71;70.57;99997.76;1793928;79;21727;-79
2023/05/22 01:22:06;;;;;;;8.48;4.22;;;;;;;18.95;69.35;100001.41;1815993;79;21189;-79
2023/05/22 01:26:08;;;;;;;8.43;4.37;;;;;;;18.26;71.65;100004.56;1764273;79;21189;-79
2023/05/22 01:29:45;;;;;;;8.58;4.80;;;;;;;18.36;71.54;99997.09;1816598;79;21233;-78
2023/05/22 01:32:51;;;;;;;5.70;4.28;;;;;;;18.32;71.71;99995.86;1801023;79;21795;-78
2023/05/22 01:35:52;;;;;;;7.58;4.03;;;;;;;18.28;71.71;100007.09;1816677;79;21176;-79
2023/05/22 01:38:47;;;;;;;5.03;4.20;;;;;;;18.13;72.43;100001.97;1815588;79;21200;-79
2023/05/22 01:41:34;;;;;;;7.00;4.22;;;;;;;18.12;72.64;99999.75;1816204;79;21735;-79
2023/05/22 01:44:40;;;;;;;8.03;4.60;;;;;;;18.88;70.01;99998.77;1814932;79;21180;-79
2023/05/22 01:47:39;;;;;;;10.35;5.15;;;;;;;19.08;68.88;99996.49;1816573;79;21167;-79
2023/05/22 01:50:33;;;;;;;10.43;5.00;;;;;;;19.31;68.00;99986.50;1817270;79;21164;-79
2023/05/22 01:53:46;;;;;;;9.43;5.67;;;;;;;18.53;70.31;99994.48;1815403;79;21263;-79
2023/05/22 01:57:11;;;;;;;8.00;5.12;;;;;;;18.17;72.31;99999.05;1816694;79;21732;-79
2023/05/22 02:00:19;;;;;;;7.65;5.10;;;;;;;18.29;72.07;100000.47;1816652;79;21176;-78
2023/05/22 02:03:28;;;;;;;9.75;4.90;;;;;;;18.22;72.31;99997.80;1815512;79;21185;-79
2023/05/22 02:06:33;;;;;;;9.68;5.30;;;;;;;18.22;72.29;99995.58;1817191;79;21746;-79
2023/05/22 02:09:39;;;;;;;6.12;5.22;;;;;;;18.19;72.27;99991.88;1815568;79;21216;-78
2023/05/22 02:12:46;;;;;;;17.55;5.50;;;;;;;18.05;72.66;99990.67;1816105;79;21259;-78
2023/05/22 02:15:55;;;;;;;11.75;6.47;;;;;;;17.93;73.11;99983.41;1816609;79;21188;-78
2023/05/22 02:19:06;;;;;;;10.53;5.28;;;;;;;17.95;73.42;99985.39;1816755;79;21239;-79
2023/05/22 02:22:13;;;;;;;11.25;6.03;;;;;;;17.85;73.92;99979.03;1815184;79;21178;-78
2023/05/22 02:25:20;;;;;;;20.15;6.28;;;;;;;17.92;73.70;99975.63;1815222;79;21758;-79
